sensor_id;sensor_type;location;lat;lon;timestamp;temperature;humidity
429;DHT22;201;48.758;9.290;2023-09-19T00:01:07;17.00;1.70
429;DHT22;201;48.758;9.290;2023-09-19T00:03:34;16.90;1.90
429;DHT22;201;48.758;9.290;2023-09-19T00:06:01;16.90;2.10
429;DHT22;201;48.758;9.290;2023-09-19T00:08:26;17.00;2.50
429;DHT22;201;48.758;9.290;2023-09-19T00:10:54;16.90;2.40
429;DHT22;201;48.758;9.290;2023-09-19T00:13:20;16.80;2.60
429;DHT22;201;48.758;9.290;2023-09-19T00:15:47;16.80;2.70
429;DHT22;201;48.758;9.290;2023-09-19T00:18:20;16.80;2.90
429;DHT22;201;48.758;9.290;2023-09-19T00:20:49;16.80;3.00
429;DHT22;201;48.758;9.290;2023-09-19T00:23:16;16.80;3.30
429;DHT22;201;48.758;9.290;2023-09-19T00:25:42;16.70;3.40
429;DHT22;201;48.758;9.290;2023-09-19T00:28:08;16.70;3.40
429;DHT22;201;48.758;9.290;2023-09-19T00:30:36;16.70;3.10
429;DHT22;201;48.758;9.290;2023-09-19T00:33:04;16.70;3.00
429;DHT22;201;48.758;9.290;2023-09-19T00:35:32;16.70;3.00
429;DHT22;201;48.758;9.290;2023-09-19T00:37:58;16.70;2.90
429;DHT22;201;48.758;9.290;2023-09-19T00:40:24;16.70;2.80
429;DHT22;201;48.758;9.290;2023-09-19T00:42:49;16.70;2.70
429;DHT22;201;48.758;9.290;2023-09-19T00:45:17;16.70;2.70
429;DHT22;201;48.758;9.290;2023-09-19T00:47:50;16.70;2.60
429;DHT22;201;48.758;9.290;2023-09-19T00:50:21;16.70;2.40
429;DHT22;201;48.758;9.290;2023-09-19T00:52:48;16.70;2.30
429;DHT22;201;48.758;9.290;2023-09-19T00:55:16;16.70;2.20
429;DHT22;201;48.758;9.290;2023-09-19T00:57:45;16.70;2.10
429;DHT22;201;48.758;9.290;2023-09-19T01:00:11;16.80;2.10
429;DHT22;201;48.758;9.290;2023-09-19T01:02:44;16.80;2.10
429;DHT22;201;48.758;9.290;2023-09-19T01:05:09;16.80;1.80
429;DHT22;201;48.758;9.290;2023-09-19T01:07:36;16.80;1.50
429;DHT22;201;48.758;9.290;2023-09-19T01:10:04;16.90;1.60
429;DHT22;201;48.758;9.290;2023-09-19T01:18:03;16.80;1.20
429;DHT22;201;48.758;9.290;2023-09-19T01:20:45;16.90;1.00
429;DHT22;201;48.758;9.290;2023-09-19T01:23:28;16.90;1.00
429;DHT22;201;48.758;9.290;2023-09-19T01:26:17;16.90;1.00
429;DHT22;201;48.758;9.290;2023-09-19T01:31:33;16.90;1.00
429;DHT22;201;48.758;9.290;2023-09-19T01:34:02;16.90;1.00
429;DHT22;201;48.758;9.290;2023-09-19T01:36:35;16.90;1.00
429;DHT22;201;48.758;9.290;2023-09-19T01:39:09;16.90;1.00
429;DHT22;201;48.758;9.290;2023-09-19T01:41:58;16.90;1.00
429;DHT22;201;48.758;9.290;2023-09-19T01:44:40;16.90;1.00
429;DHT22;201;48.758;9.290;2023-09-19T01:47:28;16.90;1.00
429;DHT22;201;48.758;9.290;2023-09-19T01:52:30;17.00;1.00
429;DHT22;201;48.758;9.290;2023-09-19T01:55:05;17.00;1.00
429;DHT22;201;48.758;9.290;2023-09-19T01:57:59;17.00;1.00
429;DHT22;201;48.758;9.290;2023-09-19T02:00:22;17.10;1.00
429;DHT22;201;48.758;9.290;2023-09-19T02:02:49;17.00;1.00
429;DHT22;201;48.758;9.290;2023-09-19T02:05:25;17.00;1.00
429;DHT22;201;48.758;9.290;2023-09-19T02:07:52;17.10;1.00
429;DHT22;201;48.758;9.290;2023-09-19T02:10:18;17.10;1.00
429;DHT22;201;48.758;9.290;2023-09-19T02:12:44;17.10;1.00
429;DHT22;201;48.758;9.290;2023-09-19T02:15:10;17.10;1.00
429;DHT22;201;48.758;9.290;2023-09-19T02:17:36;17.10;1.00
429;DHT22;201;48.758;9.290;2023-09-19T02:20:01;17.10;1.00
429;DHT22;201;48.758;9.290;2023-09-19T02:22:29;17.10;1.00
429;DHT22;201;48.758;9.290;2023-09-19T02:24:54;17.10;1.00
429;DHT22;201;48.758;9.290;2023-09-19T02:27:23;17.10;1.00
429;DHT22;201;48.758;9.290;2023-09-19T02:29:49;17.10;1.00
429;DHT22;201;48.758;9.290;2023-09-19T02:32:15;17.00;1.00
429;DHT22;201;48.758;9.290;2023-09-19T02:34:43;17.00;1.00
429;DHT22;201;48.758;9.290;2023-09-19T02:37:11;17.00;1.00
429;DHT22;201;48.758;9.290;2023-09-19T02:39:38;17.10;1.00
429;DHT22;201;48.758;9.290;2023-09-19T02:42:04;17.10;1.00
429;DHT22;201;48.758;9.290;2023-09-19T02:44:30;17.10;1.00
429;DHT22;201;48.758;9.290;2023-09-19T02:46:55;17.00;1.00
429;DHT22;201;48.758;9.290;2023-09-19T02:49:22;17.00;1.00
429;DHT22;201;48.758;9.290;2023-09-19T02:51:48;16.90;1.00
429;DHT22;201;48.758;9.290;2023-09-19T02:54:14;16.80;1.00
429;DHT22;201;48.758;9.290;2023-09-19T02:56:41;16.80;1.00
429;DHT22;201;48.758;9.290;2023-09-19T02:59:06;16.70;1.00
429;DHT22;201;48.758;9.290;2023-09-19T03:01:32;16.60;1.00
429;DHT22;201;48.758;9.290;2023-09-19T03:03:59;16.60;1.00
429;DHT22;201;48.758;9.290;2023-09-19T03:06:24;16.60;2.20
429;DHT22;201;48.758;9.290;2023-09-19T03:08:50;16.60;2.10
429;DHT22;201;48.758;9.290;2023-09-19T03:11:16;16.50;2.00
429;DHT22;201;48.758;9.290;2023-09-19T03:13:50;16.60;2.20
429;DHT22;201;48.758;9.290;2023-09-19T03:16:16;16.60;2.10
429;DHT22;201;48.758;9.290;2023-09-19T03:18:41;16.60;2.20
429;DHT22;201;48.758;9.290;2023-09-19T03:21:07;16.60;2.00
429;DHT22;201;48.758;9.290;2023-09-19T03:23:32;16.60;2.10
429;DHT22;201;48.758;9.290;2023-09-19T03:25:58;16.60;2.00
429;DHT22;201;48.758;9.290;2023-09-19T03:28:24;16.70;1.70
429;DHT22;201;48.758;9.290;2023-09-19T03:31:00;16.70;1.50
429;DHT22;201;48.758;9.290;2023-09-19T03:33:26;16.70;1.70
429;DHT22;201;48.758;9.290;2023-09-19T03:35:54;16.80;1.40
429;DHT22;201;48.758;9.290;2023-09-19T03:38:20;16.80;1.30
429;DHT22;201;48.758;9.290;2023-09-19T03:40:47;16.80;1.20
429;DHT22;201;48.758;9.290;2023-09-19T03:43:14;16.80;1.20
429;DHT22;201;48.758;9.290;2023-09-19T03:45:39;16.80;1.00
429;DHT22;201;48.758;9.290;2023-09-19T03:48:09;16.80;1.20
429;DHT22;201;48.758;9.290;2023-09-19T03:50:35;16.80;2.00
429;DHT22;201;48.758;9.290;2023-09-19T03:53:00;16.80;1.20
429;DHT22;201;48.758;9.290;2023-09-19T03:55:26;16.80;1.30
429;DHT22;201;48.758;9.290;2023-09-19T03:57:52;16.80;1.50
429;DHT22;201;48.758;9.290;2023-09-19T04:00:18;16.80;1.20
429;DHT22;201;48.758;9.290;2023-09-19T04:02:46;16.80;1.50
429;DHT22;201;48.758;9.290;2023-09-19T04:05:12;16.80;1.50
429;DHT22;201;48.758;9.290;2023-09-19T04:07:37;16.80;1.70
429;DHT22;201;48.758;9.290;2023-09-19T04:10:03;16.90;1.60
429;DHT22;201;48.758;9.290;2023-09-19T04:12:29;16.80;1.90
429;DHT22;201;48.758;9.290;2023-09-19T04:14:55;16.80;1.60
429;DHT22;201;48.758;9.290;2023-09-19T04:17:20;16.80;1.90
429;DHT22;201;48.758;9.290;2023-09-19T04:19:46;16.80;2.20
429;DHT22;201;48.758;9.290;2023-09-19T04:22:11;16.70;1.90
429;DHT22;201;48.758;9.290;2023-09-19T04:24:38;16.60;1.90
429;DHT22;201;48.758;9.290;2023-09-19T04:27:04;16.60;2.10
429;DHT22;201;48.758;9.290;2023-09-19T04:29:30;16.50;2.30
429;DHT22;201;48.758;9.290;2023-09-19T04:31:59;16.50;2.80
429;DHT22;201;48.758;9.290;2023-09-19T04:34:24;16.40;3.10
429;DHT22;201;48.758;9.290;2023-09-19T04:36:50;16.40;3.30
429;DHT22;201;48.758;9.290;2023-09-19T04:39:16;16.30;3.60
429;DHT22;201;48.758;9.290;2023-09-19T04:41:43;16.30;3.90
429;DHT22;201;48.758;9.290;2023-09-19T04:44:11;16.30;4.20
429;DHT22;201;48.758;9.290;2023-09-19T04:46:37;16.20;4.20
429;DHT22;201;48.758;9.290;2023-09-19T04:49:03;16.30;4.50
429;DHT22;201;48.758;9.290;2023-09-19T04:51:29;16.30;5.00
429;DHT22;201;48.758;9.290;2023-09-19T04:53:59;16.30;4.20
429;DHT22;201;48.758;9.290;2023-09-19T04:56:25;16.40;4.20
429;DHT22;201;48.758;9.290;2023-09-19T04:58:50;16.40;4.10
429;DHT22;201;48.758;9.290;2023-09-19T05:01:16;16.40;3.50
429;DHT22;201;48.758;9.290;2023-09-19T05:03:41;16.50;3.40
429;DHT22;201;48.758;9.290;2023-09-19T05:06:07;16.50;3.40
429;DHT22;201;48.758;9.290;2023-09-19T05:08:33;16.60;3.70
429;DHT22;201;48.758;9.290;2023-09-19T05:11:01;16.70;3.50
429;DHT22;201;48.758;9.290;2023-09-19T05:13:27;16.70;3.10
429;DHT22;201;48.758;9.290;2023-09-19T05:15:52;16.70;3.60
429;DHT22;201;48.758;9.290;2023-09-19T05:18:18;16.70;3.90
429;DHT22;201;48.758;9.290;2023-09-19T05:20:43;16.60;4.20
429;DHT22;201;48.758;9.290;2023-09-19T05:23:09;16.60;5.60
429;DHT22;201;48.758;9.290;2023-09-19T05:25:38;16.60;5.60
429;DHT22;201;48.758;9.290;2023-09-19T05:28:05;16.50;5.50
429;DHT22;201;48.758;9.290;2023-09-19T05:30:32;16.40;5.50
429;DHT22;201;48.758;9.290;2023-09-19T05:32:58;16.30;7.10
429;DHT22;201;48.758;9.290;2023-09-19T05:35:24;16.20;7.50
429;DHT22;201;48.758;9.290;2023-09-19T05:37:51;16.10;8.10
429;DHT22;201;48.758;9.290;2023-09-19T05:40:19;16.00;8.80
429;DHT22;201;48.758;9.290;2023-09-19T05:42:46;16.00;9.40
429;DHT22;201;48.758;9.290;2023-09-19T05:45:12;15.90;9.70
429;DHT22;201;48.758;9.290;2023-09-19T05:47:41;15.90;10.10
429;DHT22;201;48.758;9.290;2023-09-19T05:50:09;15.90;10.40
429;DHT22;201;48.758;9.290;2023-09-19T05:52:35;15.90;10.80
429;DHT22;201;48.758;9.290;2023-09-19T05:55:06;15.90;11.10
429;DHT22;201;48.758;9.290;2023-09-19T05:57:33;15.90;11.20
429;DHT22;201;48.758;9.290;2023-09-19T05:59:59;16.00;11.50
429;DHT22;201;48.758;9.290;2023-09-19T06:02:25;16.00;11.30
429;DHT22;201;48.758;9.290;2023-09-19T06:04:54;16.00;11.80
429;DHT22;201;48.758;9.290;2023-09-19T06:07:21;15.90;10.70
429;DHT22;201;48.758;9.290;2023-09-19T06:09:48;15.60;10.00
429;DHT22;201;48.758;9.290;2023-09-19T06:12:14;15.50;10.50
429;DHT22;201;48.758;9.290;2023-09-19T06:14:42;15.40;11.50
429;DHT22;201;48.758;9.290;2023-09-19T06:17:08;15.30;12.40
429;DHT22;201;48.758;9.290;2023-09-19T06:19:34;15.20;13.30
429;DHT22;201;48.758;9.290;2023-09-19T06:21:59;15.20;13.30
429;DHT22;201;48.758;9.290;2023-09-19T06:24:25;15.10;13.30
429;DHT22;201;48.758;9.290;2023-09-19T06:26:51;15.10;14.30
429;DHT22;201;48.758;9.290;2023-09-19T06:29:18;15.10;14.80
429;DHT22;201;48.758;9.290;2023-09-19T06:31:43;15.20;14.80
429;DHT22;201;48.758;9.290;2023-09-19T06:34:10;15.20;15.20
429;DHT22;201;48.758;9.290;2023-09-19T06:36:35;15.20;15.10
429;DHT22;201;48.758;9.290;2023-09-19T06:39:01;15.20;14.40
429;DHT22;201;48.758;9.290;2023-09-19T06:41:29;15.20;14.60
429;DHT22;201;48.758;9.290;2023-09-19T06:43:55;15.20;14.70
429;DHT22;201;48.758;9.290;2023-09-19T06:46:20;15.20;14.60
429;DHT22;201;48.758;9.290;2023-09-19T06:48:46;15.30;15.10
429;DHT22;201;48.758;9.290;2023-09-19T06:51:13;15.40;15.30
429;DHT22;201;48.758;9.290;2023-09-19T06:53:41;15.50;15.10
429;DHT22;201;48.758;9.290;2023-09-19T06:56:07;15.50;14.30
429;DHT22;201;48.758;9.290;2023-09-19T06:58:32;15.60;13.70
429;DHT22;201;48.758;9.290;2023-09-19T07:00:58;15.70;13.70
429;DHT22;201;48.758;9.290;2023-09-19T07:03:24;15.70;13.70
429;DHT22;201;48.758;9.290;2023-09-19T07:05:52;15.80;13.80
429;DHT22;201;48.758;9.290;2023-09-19T07:08:18;16.10;14.00
429;DHT22;201;48.758;9.290;2023-09-19T07:10:44;16.40;13.50
429;DHT22;201;48.758;9.290;2023-09-19T07:13:14;16.70;12.70
429;DHT22;201;48.758;9.290;2023-09-19T07:15:42;17.00;11.50
429;DHT22;201;48.758;9.290;2023-09-19T07:18:15;17.60;10.20
429;DHT22;201;48.758;9.290;2023-09-19T07:20:45;18.50;7.00
429;DHT22;201;48.758;9.290;2023-09-19T07:23:18;19.20;3.50
429;DHT22;201;48.758;9.290;2023-09-19T07:25:44;19.50;1.00
429;DHT22;201;48.758;9.290;2023-09-19T07:28:11;19.80;1.00
429;DHT22;201;48.758;9.290;2023-09-19T07:30:37;19.90;1.00
429;DHT22;201;48.758;9.290;2023-09-19T07:33:03;19.90;1.00
429;DHT22;201;48.758;9.290;2023-09-19T07:35:30;20.00;1.00
429;DHT22;201;48.758;9.290;2023-09-19T07:37:56;20.20;1.00
429;DHT22;201;48.758;9.290;2023-09-19T07:40:26;20.40;1.00
429;DHT22;201;48.758;9.290;2023-09-19T07:42:55;20.70;1.00
429;DHT22;201;48.758;9.290;2023-09-19T07:45:20;20.80;1.00
429;DHT22;201;48.758;9.290;2023-09-19T07:47:50;20.90;1.00
429;DHT22;201;48.758;9.290;2023-09-19T07:50:17;21.70;1.00
429;DHT22;201;48.758;9.290;2023-09-19T07:52:47;22.50;1.00
429;DHT22;201;48.758;9.290;2023-09-19T07:55:13;23.30;1.00
429;DHT22;201;48.758;9.290;2023-09-19T07:57:46;23.80;1.00
429;DHT22;201;48.758;9.290;2023-09-19T08:00:14;24.80;1.00
429;DHT22;201;48.758;9.290;2023-09-19T08:02:41;26.10;1.00
429;DHT22;201;48.758;9.290;2023-09-19T08:05:08;27.00;1.00
429;DHT22;201;48.758;9.290;2023-09-19T08:07:51;27.40;1.00
429;DHT22;201;48.758;9.290;2023-09-19T08:10:18;27.50;1.00
429;DHT22;201;48.758;9.290;2023-09-19T08:12:45;27.80;1.00
429;DHT22;201;48.758;9.290;2023-09-19T08:15:18;28.30;1.00
429;DHT22;201;48.758;9.290;2023-09-19T08:17:45;29.00;1.00
429;DHT22;201;48.758;9.290;2023-09-19T08:20:11;30.20;1.00
429;DHT22;201;48.758;9.290;2023-09-19T08:22:51;30.80;1.00
429;DHT22;201;48.758;9.290;2023-09-19T08:25:20;31.80;1.00
429;DHT22;201;48.758;9.290;2023-09-19T08:27:47;33.00;1.00
429;DHT22;201;48.758;9.290;2023-09-19T08:30:24;33.90;1.00
429;DHT22;201;48.758;9.290;2023-09-19T08:32:59;34.30;1.00
429;DHT22;201;48.758;9.290;2023-09-19T08:35:26;34.40;1.00
429;DHT22;201;48.758;9.290;2023-09-19T08:37:51;34.50;1.00
429;DHT22;201;48.758;9.290;2023-09-19T08:40:17;34.60;1.00
429;DHT22;201;48.758;9.290;2023-09-19T08:42:52;34.60;1.00
429;DHT22;201;48.758;9.290;2023-09-19T08:45:19;34.20;1.00
429;DHT22;201;48.758;9.290;2023-09-19T08:47:56;33.50;1.00
429;DHT22;201;48.758;9.290;2023-09-19T08:50:28;31.80;1.00
429;DHT22;201;48.758;9.290;2023-09-19T08:52:55;30.00;1.00
429;DHT22;201;48.758;9.290;2023-09-19T08:55:27;28.90;1.00
429;DHT22;201;48.758;9.290;2023-09-19T08:58:00;27.80;1.00
429;DHT22;201;48.758;9.290;2023-09-19T09:00:28;26.50;1.00
429;DHT22;201;48.758;9.290;2023-09-19T09:02:55;25.40;1.00
429;DHT22;201;48.758;9.290;2023-09-19T09:05:22;24.30;1.00
429;DHT22;201;48.758;9.290;2023-09-19T09:07:49;23.20;1.00
429;DHT22;201;48.758;9.290;2023-09-19T09:10:18;22.40;1.00
429;DHT22;201;48.758;9.290;2023-09-19T09:12:47;22.20;1.00
429;DHT22;201;48.758;9.290;2023-09-19T09:15:13;23.00;1.00
429;DHT22;201;48.758;9.290;2023-09-19T09:17:41;22.90;1.00
429;DHT22;201;48.758;9.290;2023-09-19T09:20:08;22.60;1.00
429;DHT22;201;48.758;9.290;2023-09-19T09:22:35;22.10;1.00
429;DHT22;201;48.758;9.290;2023-09-19T09:25:01;21.70;1.00
429;DHT22;201;48.758;9.290;2023-09-19T09:27:29;21.40;1.00
429;DHT22;201;48.758;9.290;2023-09-19T09:29:55;21.30;1.00
429;DHT22;201;48.758;9.290;2023-09-19T09:32:31;21.10;1.00
429;DHT22;201;48.758;9.290;2023-09-19T09:35:07;20.70;1.00
429;DHT22;201;48.758;9.290;2023-09-19T09:37:35;20.30;1.00
429;DHT22;201;48.758;9.290;2023-09-19T09:40:04;20.20;1.00
429;DHT22;201;48.758;9.290;2023-09-19T09:42:42;20.30;1.00
429;DHT22;201;48.758;9.290;2023-09-19T09:45:23;20.60;1.00
429;DHT22;201;48.758;9.290;2023-09-19T09:48:01;21.40;1.00
429;DHT22;201;48.758;9.290;2023-09-19T09:50:31;22.70;1.00
429;DHT22;201;48.758;9.290;2023-09-19T09:53:31;23.50;1.00
429;DHT22;201;48.758;9.290;2023-09-19T09:56:07;23.60;1.00
429;DHT22;201;48.758;9.290;2023-09-19T09:58:37;24.30;1.00
429;DHT22;201;48.758;9.290;2023-09-19T10:01:06;24.10;1.00
429;DHT22;201;48.758;9.290;2023-09-19T10:03:35;23.50;1.00
429;DHT22;201;48.758;9.290;2023-09-19T10:06:08;22.80;1.00
429;DHT22;201;48.758;9.290;2023-09-19T10:09:04;22.40;1.00
429;DHT22;201;48.758;9.290;2023-09-19T10:11:43;24.50;1.00
429;DHT22;201;48.758;9.290;2023-09-19T10:14:11;27.00;1.00
429;DHT22;201;48.758;9.290;2023-09-19T10:16:41;26.30;1.00
429;DHT22;201;48.758;9.290;2023-09-19T10:19:10;24.90;1.00
429;DHT22;201;48.758;9.290;2023-09-19T10:21:37;23.90;1.00
429;DHT22;201;48.758;9.290;2023-09-19T10:24:05;23.10;1.00
429;DHT22;201;48.758;9.290;2023-09-19T10:26:34;22.60;1.00
429;DHT22;201;48.758;9.290;2023-09-19T10:29:03;22.10;1.00
429;DHT22;201;48.758;9.290;2023-09-19T10:31:32;22.40;1.00
429;DHT22;201;48.758;9.290;2023-09-19T10:34:02;23.20;1.00
429;DHT22;201;48.758;9.290;2023-09-19T10:36:32;24.30;1.00
429;DHT22;201;48.758;9.290;2023-09-19T10:39:02;25.50;1.00
429;DHT22;201;48.758;9.290;2023-09-19T10:41:31;26.30;1.00
429;DHT22;201;48.758;9.290;2023-09-19T10:44:02;26.90;1.00
429;DHT22;201;48.758;9.290;2023-09-19T10:46:28;27.30;1.00
429;DHT22;201;48.758;9.290;2023-09-19T10:48:59;27.00;1.00
429;DHT22;201;48.758;9.290;2023-09-19T10:51:29;26.70;1.00
429;DHT22;201;48.758;9.290;2023-09-19T10:54:10;26.50;1.00
429;DHT22;201;48.758;9.290;2023-09-19T10:56:42;26.50;1.00
429;DHT22;201;48.758;9.290;2023-09-19T10:59:11;26.60;1.00
429;DHT22;201;48.758;9.290;2023-09-19T11:01:46;26.60;1.00
429;DHT22;201;48.758;9.290;2023-09-19T11:04:29;26.60;1.00
429;DHT22;201;48.758;9.290;2023-09-19T11:09:54;26.20;1.00
429;DHT22;201;48.758;9.290;2023-09-19T11:14:55;26.10;1.00
429;DHT22;201;48.758;9.290;2023-09-19T11:30:43;24.50;1.00
429;DHT22;201;48.758;9.290;2023-09-19T11:33:16;24.60;1.00
429;DHT22;201;48.758;9.290;2023-09-19T11:43:54;25.10;1.00
429;DHT22;201;48.758;9.290;2023-09-19T11:46:52;25.20;1.00
429;DHT22;201;48.758;9.290;2023-09-19T11:49:19;25.30;1.00
429;DHT22;201;48.758;9.290;2023-09-19T11:51:46;25.40;1.00
429;DHT22;201;48.758;9.290;2023-09-19T11:54:14;25.50;1.00
429;DHT22;201;48.758;9.290;2023-09-19T11:56:44;25.50;1.00
429;DHT22;201;48.758;9.290;2023-09-19T11:59:11;25.50;1.00
429;DHT22;201;48.758;9.290;2023-09-19T12:01:38;25.40;1.00
429;DHT22;201;48.758;9.290;2023-09-19T12:04:11;25.20;1.00
429;DHT22;201;48.758;9.290;2023-09-19T12:06:37;25.10;1.00
429;DHT22;201;48.758;9.290;2023-09-19T12:09:12;25.00;1.00
429;DHT22;201;48.758;9.290;2023-09-19T12:11:42;24.70;1.00
429;DHT22;201;48.758;9.290;2023-09-19T12:14:10;24.60;1.00
429;DHT22;201;48.758;9.290;2023-09-19T12:16:35;24.10;1.00
429;DHT22;201;48.758;9.290;2023-09-19T12:19:20;23.90;1.00
429;DHT22;201;48.758;9.290;2023-09-19T12:21:57;24.00;1.00
429;DHT22;201;48.758;9.290;2023-09-19T12:24:25;24.30;1.00
429;DHT22;201;48.758;9.290;2023-09-19T12:26:52;24.60;1.00
429;DHT22;201;48.758;9.290;2023-09-19T12:29:21;24.70;1.00
429;DHT22;201;48.758;9.290;2023-09-19T12:31:56;24.70;1.00
429;DHT22;201;48.758;9.290;2023-09-19T12:34:29;24.30;1.00
429;DHT22;201;48.758;9.290;2023-09-19T12:37:12;24.10;1.00
429;DHT22;201;48.758;9.290;2023-09-19T12:39:45;24.20;1.00
429;DHT22;201;48.758;9.290;2023-09-19T12:42:22;24.50;1.00
429;DHT22;201;48.758;9.290;2023-09-19T12:44:50;24.50;1.00
429;DHT22;201;48.758;9.290;2023-09-19T12:47:23;24.70;1.00
429;DHT22;201;48.758;9.290;2023-09-19T12:50:12;24.80;1.00
429;DHT22;201;48.758;9.290;2023-09-19T12:52:48;24.90;1.00
429;DHT22;201;48.758;9.290;2023-09-19T12:55:28;25.00;1.00
429;DHT22;201;48.758;9.290;2023-09-19T13:00:40;24.40;1.00
429;DHT22;201;48.758;9.290;2023-09-19T13:05:57;24.10;1.00
429;DHT22;201;48.758;9.290;2023-09-19T13:08:26;24.30;1.00
429;DHT22;201;48.758;9.290;2023-09-19T13:11:14;24.40;1.00
429;DHT22;201;48.758;9.290;2023-09-19T13:14:14;24.50;1.00
429;DHT22;201;48.758;9.290;2023-09-19T13:16:55;24.70;1.00
429;DHT22;201;48.758;9.290;2023-09-19T13:19:41;24.90;1.00
429;DHT22;201;48.758;9.290;2023-09-19T13:25:04;25.00;1.00
429;DHT22;201;48.758;9.290;2023-09-19T13:27:32;25.10;1.00
429;DHT22;201;48.758;9.290;2023-09-19T13:29:58;25.00;1.00
429;DHT22;201;48.758;9.290;2023-09-19T13:32:24;25.00;1.00
429;DHT22;201;48.758;9.290;2023-09-19T13:34:50;24.80;1.00
429;DHT22;201;48.758;9.290;2023-09-19T13:37:16;24.60;1.00
429;DHT22;201;48.758;9.290;2023-09-19T13:39:43;24.50;1.00
429;DHT22;201;48.758;9.290;2023-09-19T13:42:13;24.40;1.00
429;DHT22;201;48.758;9.290;2023-09-19T13:44:38;24.40;1.00
429;DHT22;201;48.758;9.290;2023-09-19T13:47:04;24.20;1.00
429;DHT22;201;48.758;9.290;2023-09-19T13:49:35;24.20;1.00
429;DHT22;201;48.758;9.290;2023-09-19T13:52:01;24.20;1.00
429;DHT22;201;48.758;9.290;2023-09-19T13:54:29;24.10;1.00
429;DHT22;201;48.758;9.290;2023-09-19T13:56:54;24.10;1.00
429;DHT22;201;48.758;9.290;2023-09-19T13:59:20;23.90;1.00
429;DHT22;201;48.758;9.290;2023-09-19T14:01:46;23.80;1.00
429;DHT22;201;48.758;9.290;2023-09-19T14:04:12;23.80;1.00
429;DHT22;201;48.758;9.290;2023-09-19T14:06:38;23.80;1.00
429;DHT22;201;48.758;9.290;2023-09-19T14:09:06;23.80;1.00
429;DHT22;201;48.758;9.290;2023-09-19T14:11:33;23.90;1.00
429;DHT22;201;48.758;9.290;2023-09-19T14:13:58;23.80;1.00
429;DHT22;201;48.758;9.290;2023-09-19T14:16:24;23.80;1.00
429;DHT22;201;48.758;9.290;2023-09-19T14:18:50;23.80;1.00
429;DHT22;201;48.758;9.290;2023-09-19T14:21:15;23.90;1.00
429;DHT22;201;48.758;9.290;2023-09-19T14:23:41;23.80;1.00
429;DHT22;201;48.758;9.290;2023-09-19T14:26:08;23.60;1.00
429;DHT22;201;48.758;9.290;2023-09-19T14:28:34;23.40;1.00
429;DHT22;201;48.758;9.290;2023-09-19T14:31:10;23.30;1.00
429;DHT22;201;48.758;9.290;2023-09-19T14:33:35;23.20;1.00
429;DHT22;201;48.758;9.290;2023-09-19T14:36:05;23.10;1.00
429;DHT22;201;48.758;9.290;2023-09-19T14:38:33;23.00;1.00
429;DHT22;201;48.758;9.290;2023-09-19T14:41:03;22.90;1.00
429;DHT22;201;48.758;9.290;2023-09-19T14:43:30;22.80;1.00
429;DHT22;201;48.758;9.290;2023-09-19T14:46:05;22.70;1.00
429;DHT22;201;48.758;9.290;2023-09-19T14:48:35;22.70;1.00
429;DHT22;201;48.758;9.290;2023-09-19T14:51:04;22.70;1.00
429;DHT22;201;48.758;9.290;2023-09-19T14:53:33;22.80;1.00
429;DHT22;201;48.758;9.290;2023-09-19T14:56:02;22.90;1.00
429;DHT22;201;48.758;9.290;2023-09-19T14:58:32;23.00;1.00
429;DHT22;201;48.758;9.290;2023-09-19T15:01:11;23.10;1.00
429;DHT22;201;48.758;9.290;2023-09-19T15:03:38;23.10;1.00
429;DHT22;201;48.758;9.290;2023-09-19T15:06:06;23.00;1.00
429;DHT22;201;48.758;9.290;2023-09-19T15:08:35;23.00;1.00
429;DHT22;201;48.758;9.290;2023-09-19T15:11:02;23.00;1.00
429;DHT22;201;48.758;9.290;2023-09-19T15:13:31;23.00;1.00
429;DHT22;201;48.758;9.290;2023-09-19T15:16:04;23.00;1.00
429;DHT22;201;48.758;9.290;2023-09-19T15:18:34;22.90;1.00
429;DHT22;201;48.758;9.290;2023-09-19T15:21:01;22.80;1.00
429;DHT22;201;48.758;9.290;2023-09-19T15:23:27;22.70;1.00
429;DHT22;201;48.758;9.290;2023-09-19T15:25:54;22.60;1.00
429;DHT22;201;48.758;9.290;2023-09-19T15:28:21;22.40;1.00
429;DHT22;201;48.758;9.290;2023-09-19T15:30:56;22.40;1.00
429;DHT22;201;48.758;9.290;2023-09-19T15:33:22;22.40;1.00
429;DHT22;201;48.758;9.290;2023-09-19T15:35:48;22.40;1.00
429;DHT22;201;48.758;9.290;2023-09-19T15:38:13;22.20;1.00
429;DHT22;201;48.758;9.290;2023-09-19T15:40:46;22.10;1.00
429;DHT22;201;48.758;9.290;2023-09-19T15:43:12;22.10;1.00
429;DHT22;201;48.758;9.290;2023-09-19T15:45:38;22.10;1.00
429;DHT22;201;48.758;9.290;2023-09-19T15:48:04;22.10;1.00
429;DHT22;201;48.758;9.290;2023-09-19T15:50:30;22.10;1.00
429;DHT22;201;48.758;9.290;2023-09-19T15:52:55;22.10;1.00
429;DHT22;201;48.758;9.290;2023-09-19T15:55:21;22.10;1.00
429;DHT22;201;48.758;9.290;2023-09-19T15:57:47;22.00;1.00
429;DHT22;201;48.758;9.290;2023-09-19T16:00:13;22.00;1.00
429;DHT22;201;48.758;9.290;2023-09-19T16:02:42;21.90;1.00
429;DHT22;201;48.758;9.290;2023-09-19T16:05:08;21.90;1.00
429;DHT22;201;48.758;9.290;2023-09-19T16:07:34;21.80;1.00
429;DHT22;201;48.758;9.290;2023-09-19T16:10:00;21.80;1.00
429;DHT22;201;48.758;9.290;2023-09-19T16:12:26;21.80;1.00
429;DHT22;201;48.758;9.290;2023-09-19T16:14:51;21.80;1.00
429;DHT22;201;48.758;9.290;2023-09-19T16:17:17;21.80;1.00
429;DHT22;201;48.758;9.290;2023-09-19T16:19:43;21.80;1.00
429;DHT22;201;48.758;9.290;2023-09-19T16:22:09;21.70;1.00
429;DHT22;201;48.758;9.290;2023-09-19T16:24:35;21.60;1.00
429;DHT22;201;48.758;9.290;2023-09-19T16:27:01;21.50;1.00
429;DHT22;201;48.758;9.290;2023-09-19T16:29:26;21.40;1.00
429;DHT22;201;48.758;9.290;2023-09-19T16:31:52;21.30;1.00
429;DHT22;201;48.758;9.290;2023-09-19T16:34:18;21.30;1.00
429;DHT22;201;48.758;9.290;2023-09-19T16:36:43;21.20;1.00
429;DHT22;201;48.758;9.290;2023-09-19T16:39:09;21.20;1.00
429;DHT22;201;48.758;9.290;2023-09-19T16:41:36;21.10;1.00
429;DHT22;201;48.758;9.290;2023-09-19T16:44:02;21.10;1.00
429;DHT22;201;48.758;9.290;2023-09-19T16:46:33;21.10;1.00
429;DHT22;201;48.758;9.290;2023-09-19T16:48:59;21.00;1.00
429;DHT22;201;48.758;9.290;2023-09-19T16:51:25;21.00;1.00
429;DHT22;201;48.758;9.290;2023-09-19T16:53:51;20.90;1.00
429;DHT22;201;48.758;9.290;2023-09-19T16:56:18;20.90;1.00
429;DHT22;201;48.758;9.290;2023-09-19T16:58:48;20.80;1.00
429;DHT22;201;48.758;9.290;2023-09-19T17:01:17;20.80;1.00
429;DHT22;201;48.758;9.290;2023-09-19T17:03:44;20.60;1.00
429;DHT22;201;48.758;9.290;2023-09-19T17:06:13;20.60;1.00
429;DHT22;201;48.758;9.290;2023-09-19T17:08:41;20.50;1.00
429;DHT22;201;48.758;9.290;2023-09-19T17:11:11;20.50;1.00
429;DHT22;201;48.758;9.290;2023-09-19T17:13:42;20.40;1.00
429;DHT22;201;48.758;9.290;2023-09-19T17:16:12;20.30;1.00
429;DHT22;201;48.758;9.290;2023-09-19T17:18:40;20.20;1.00
429;DHT22;201;48.758;9.290;2023-09-19T17:21:09;20.20;1.00
429;DHT22;201;48.758;9.290;2023-09-19T17:23:37;20.20;1.00
429;DHT22;201;48.758;9.290;2023-09-19T17:26:07;20.10;1.00
429;DHT22;201;48.758;9.290;2023-09-19T17:28:36;20.10;1.00
429;DHT22;201;48.758;9.290;2023-09-19T17:31:02;20.00;1.00
429;DHT22;201;48.758;9.290;2023-09-19T17:33:29;20.00;1.00
429;DHT22;201;48.758;9.290;2023-09-19T17:36:07;19.90;1.00
429;DHT22;201;48.758;9.290;2023-09-19T17:38:36;19.80;1.00
429;DHT22;201;48.758;9.290;2023-09-19T17:41:05;19.80;1.00
429;DHT22;201;48.758;9.290;2023-09-19T17:43:36;19.70;1.00
429;DHT22;201;48.758;9.290;2023-09-19T17:46:15;19.50;1.00